Time;durP1;ratioP1;P1;durP2;ratioP2;P2;SDS_P1;SDS_P2;PMS_P1;PMS_P2;Temp;Humidity;BMP_temperature;BMP_pressure;BME280_temperature;BME280_humidity;BME280_pressure;Samples;Min_cycle;Max_cycle;Signal;HPM_P1;HPM_P2
2023/05/02 00:01:36;;;;;;;11.60;6.80;;;;;;;15.48;51.39;100053.13;5075038;28;20025;-75
2023/05/02 00:04:02;;;;;;;16.90;8.02;;;;;;;15.39;51.22;100041.81;5074720;28;20020;-77
2023/05/02 00:06:30;;;;;;;8.82;6.85;;;;;;;15.68;51.34;100101.19;5074652;28;20020;-76
2023/05/02 00:08:55;;;;;;;7.30;5.95;;;;;;;15.14;51.66;100014.88;5073266;28;20024;-78
2023/05/02 00:11:23;;;;;;;6.57;5.97;;;;;;;15.55;51.85;100092.06;5073217;28;20029;-78
2023/05/02 00:13:48;;;;;;;14.82;7.05;;;;;;;15.66;51.84;100103.22;5074447;28;20110;-78
2023/05/02 00:16:14;;;;;;;7.78;6.75;;;;;;;15.64;51.92;100106.09;5074601;28;20099;-76
2023/05/02 00:18:39;;;;;;;7.70;6.05;;;;;;;15.53;52.04;100098.59;5074277;28;20455;-78
2023/05/02 00:21:06;;;;;;;6.45;5.90;;;;;;;15.64;51.95;100115.91;5074226;28;20078;-77
2023/05/02 00:23:31;;;;;;;6.93;6.25;;;;;;;15.51;52.20;100092.66;5074300;28;20024;-77
2023/05/02 00:25:57;;;;;;;7.50;6.00;;;;;;;15.19;52.09;100055.03;5073967;28;20041;-77
2023/05/02 00:28:22;;;;;;;8.02;5.70;;;;;;;15.04;51.96;100038.34;5074190;28;20028;-78
2023/05/02 00:30:48;;;;;;;9.13;5.55;;;;;;;14.96;51.88;100017.22;5074086;28;20467;-78
2023/05/02 00:33:14;;;;;;;8.40;5.68;;;;;;;15.18;52.12;100063.19;5072663;28;20028;-78
2023/05/02 00:35:40;;;;;;;17.13;6.70;;;;;;;15.17;52.24;100081.00;5072766;28;20028;-76
2023/05/02 00:38:06;;;;;;;19.20;6.80;;;;;;;15.07;52.03;100075.19;5074008;28;20028;-79
2023/05/02 00:40:41;;;;;;;11.60;5.40;;;;;;;14.83;52.28;100041.03;5073868;28;20023;-78
2023/05/02 00:43:07;;;;;;;13.50;6.20;;;;;;;14.97;52.47;100081.88;5073858;28;20557;-78
2023/05/02 00:45:32;;;;;;;12.23;6.28;;;;;;;14.67;52.47;100036.81;5073477;28;20104;-79
2023/05/02 00:47:57;;;;;;;12.43;6.00;;;;;;;15.21;52.63;100129.31;5073979;28;20068;-77
2023/05/02 00:50:26;;;;;;;13.93;6.03;;;;;;;15.07;52.83;100119.59;5073816;28;20064;-78
2023/05/02 00:52:54;;;;;;;12.98;6.15;;;;;;;14.98;52.52;100099.47;5073646;28;20025;-77
2023/05/02 00:55:19;;;;;;;16.10;6.90;;;;;;;14.98;52.48;100097.63;5072229;28;20387;-78
2023/05/02 00:57:45;;;;;;;17.98;8.55;;;;;;;14.83;52.74;100070.28;5073698;28;20073;-77
2023/05/02 01:00:12;;;;;;;13.98;7.78;;;;;;;15.03;52.83;100113.00;5073733;28;20013;-78
2023/05/02 01:02:57;;;;;;;11.63;7.93;;;;;;;15.10;52.71;100128.00;5072260;28;20417;-79
2023/05/02 01:05:54;;;;;;;22.88;13.70;;;;;;;14.51;53.14;100039.75;5073252;28;20517;-79
2023/05/02 01:08:39;;;;;;;12.27;8.02;;;;;;;15.04;52.68;100126.09;5072377;28;20012;-78
2023/05/02 01:11:11;;;;;;;11.82;7.13;;;;;;;15.01;52.94;100118.53;5073039;28;20036;-78
2023/05/02 01:13:37;;;;;;;12.13;7.60;;;;;;;14.55;52.61;100052.47;5071836;28;20020;-78
2023/05/02 01:16:06;;;;;;;8.55;6.88;;;;;;;14.94;52.97;100114.97;5073315;28;20031;-79
2023/05/02 01:18:37;;;;;;;12.50;6.15;;;;;;;14.86;53.07;100112.44;5073372;28;20105;-79
2023/05/02 01:21:07;;;;;;;15.10;6.73;;;;;;;14.97;53.11;100125.22;5073210;28;20028;-78
2023/05/02 01:24:03;;;;;;;12.40;6.72;;;;;;;15.02;53.16;100133.47;5073221;28;20340;-78
2023/05/02 01:26:39;;;;;;;6.20;5.55;;;;;;;14.97;53.08;100135.88;5073092;28;20583;-77
2023/05/02 01:29:07;;;;;;;6.97;6.30;;;;;;;14.96;52.76;100130.75;5073008;28;20025;-78
2023/05/02 01:31:38;;;;;;;67.35;15.45;;;;;;;14.56;52.89;100093.16;5073161;28;20020;-79
2023/05/02 01:34:08;;;;;;;13.63;8.38;;;;;;;14.27;53.01;100078.13;5072945;28;20021;-78
2023/05/02 01:36:35;;;;;;;31.92;10.55;;;;;;;14.51;53.15;100116.81;5072925;28;20093;-78
2023/05/02 01:39:02;;;;;;;16.90;9.20;;;;;;;14.25;53.12;100082.81;5072698;28;20104;-79
2023/05/02 01:41:31;;;;;;;11.02;7.95;;;;;;;14.10;53.08;100072.19;5072825;28;20519;-78
2023/05/02 01:43:58;;;;;;;13.60;8.70;;;;;;;14.18;53.27;100089.88;5072820;28;20120;-77
2023/05/02 01:46:31;;;;;;;8.38;7.32;;;;;;;13.44;53.35;100036.91;5072520;28;20052;-79
2023/05/02 01:48:59;;;;;;;15.25;6.68;;;;;;;14.40;53.69;100146.50;5072479;28;20024;-78
2023/05/02 01:51:31;;;;;;;9.13;6.85;;;;;;;14.08;53.49;100089.34;5072214;28;20020;-78
2023/05/02 01:54:07;;;;;;;18.15;7.38;;;;;;;14.15;53.29;100087.59;5072285;28;20024;-77
2023/05/02 01:56:36;;;;;;;7.50;6.68;;;;;;;14.28;53.31;100119.63;5071144;28;20032;-78
2023/05/02 01:59:05;;;;;;;15.73;7.28;;;;;;;14.11;53.21;100110.19;5072685;28;20078;-79
2023/05/02 02:01:32;;;;;;;12.38;7.63;;;;;;;13.70;53.31;100035.59;5072542;28;20066;-78
2023/05/02 02:03:59;;;;;;;34.65;8.68;;;;;;;14.09;53.42;100105.06;5072390;28;20099;-78
2023/05/02 02:06:26;;;;;;;19.98;7.45;;;;;;;14.15;53.58;100116.81;5071003;28;20028;-79
2023/05/02 02:08:52;;;;;;;8.05;6.78;;;;;;;14.23;53.51;100133.47;5071093;28;20044;-78
2023/05/02 02:11:25;;;;;;;19.60;7.55;;;;;;;13.69;53.81;100048.03;5072201;28;20059;-78
2023/05/02 02:13:59;;;;;;;16.77;7.50;;;;;;;14.17;53.85;100128.06;5072075;28;20032;-77
2023/05/02 02:16:31;;;;;;;6.70;6.10;;;;;;;14.17;53.85;100133.38;5071974;28;20027;-78
2023/05/02 02:19:00;;;;;;;25.58;9.82;;;;;;;14.16;53.83;100123.78;5071462;28;20021;-78
2023/05/02 02:21:28;;;;;;;50.00;10.82;;;;;;;13.76;53.58;100056.09;5071937;28;20028;-77
2023/05/02 02:24:00;;;;;;;26.10;8.93;;;;;;;13.72;53.86;100057.47;5071839;28;20024;-78
2023/05/02 02:26:26;;;;;;;15.52;6.53;;;;;;;13.80;54.02;100084.72;5071924;28;20560;-78
2023/05/02 02:28:51;;;;;;;20.02;7.68;;;;;;;13.72;53.89;100066.25;5071790;28;20107;-79
2023/05/02 02:31:16;;;;;;;7.43;6.65;;;;;;;13.93;54.09;100122.03;5071556;28;20025;-78
2023/05/02 02:33:43;;;;;;;11.75;7.38;;;;;;;13.54;54.21;100060.50;5071633;28;20016;-79
2023/05/02 02:36:16;;;;;;;7.07;6.35;;;;;;;14.00;54.06;100130.09;5071877;28;20036;-77
2023/05/02 02:38:48;;;;;;;15.93;7.20;;;;;;;13.70;53.90;100100.09;5070297;28;20514;-78
2023/05/02 02:41:30;;;;;;;10.57;7.07;;;;;;;13.44;54.01;100057.31;5071647;28;20482;-79
2023/05/02 02:44:03;;;;;;;16.10;7.65;;;;;;;13.85;54.04;100126.63;5071483;28;20573;-78
2023/05/02 02:46:45;;;;;;;8.75;7.93;;;;;;;13.82;53.70;100137.63;5070281;28;20027;-77
2023/05/02 02:49:23;;;;;;;7.97;7.18;;;;;;;13.77;54.01;100140.00;5071525;28;20056;-78
2023/05/02 02:52:07;;;;;;;18.35;8.45;;;;;;;13.78;53.89;100139.81;5071424;28;20108;-77
2023/05/02 02:55:05;;;;;;;41.28;9.80;;;;;;;13.32;53.62;100086.91;5069981;28;20024;-78
2023/05/02 02:57:50;;;;;;;15.93;7.30;;;;;;;13.48;53.92;100133.69;5062180;28;20587;-77
2023/05/02 03:00:20;;;;;;;20.20;7.45;;;;;;;13.23;54.03;100121.66;5071383;28;20020;-77
2023/05/02 03:02:46;;;;;;;6.80;6.20;;;;;;;13.35;53.96;100144.91;5071309;28;20031;-78
2023/05/02 03:05:12;;;;;;;41.38;10.48;;;;;;;13.30;53.94;100152.59;5071461;28;20078;-78
2023/05/02 03:07:38;;;;;;;20.02;7.68;;;;;;;12.75;54.24;100078.69;5071396;28;20050;-78
2023/05/02 03:10:04;;;;;;;7.97;6.20;;;;;;;13.17;54.09;100143.59;5071244;28;20025;-78
2023/05/02 03:12:30;;;;;;;6.63;5.97;;;;;;;12.67;54.37;100092.00;5071379;28;20102;-77
2023/05/02 03:15:22;;;;;;;16.08;6.15;;;;;;;12.59;54.23;100069.00;5071106;28;20489;-78
2023/05/02 03:17:47;;;;;;;31.70;8.93;;;;;;;12.68;54.54;100091.81;5070962;28;20104;-77
2023/05/02 03:20:12;;;;;;;10.30;6.45;;;;;;;13.14;54.50;100163.31;5070012;28;20580;-78
2023/05/02 03:22:38;;;;;;;7.50;6.40;;;;;;;12.91;54.18;100128.06;5071322;28;20024;-77
2023/05/02 03:25:03;;;;;;;9.73;5.80;;;;;;;12.50;54.60;100108.97;5071577;28;20021;-77
2023/05/02 03:27:30;;;;;;;9.52;6.47;;;;;;;12.73;54.60;100107.19;5069823;28;20048;-77
2023/05/02 03:29:56;;;;;;;7.15;5.90;;;;;;;12.97;54.37;100153.84;5071227;28;20035;-77
2023/05/02 03:32:21;;;;;;;6.25;5.65;;;;;;;12.51;54.71;100084.13;5075142;28;20033;-78
2023/05/02 03:34:47;;;;;;;6.10;5.60;;;;;;;12.62;54.29;100100.44;5075196;28;20029;-77
2023/05/02 03:37:12;;;;;;;11.82;6.75;;;;;;;13.05;54.29;100159.09;5075468;28;20017;-77
2023/05/02 03:39:37;;;;;;;10.40;6.10;;;;;;;13.20;54.49;100170.56;5075442;28;20021;-78
2023/05/02 03:42:04;;;;;;;6.25;5.65;;;;;;;12.97;54.04;100144.06;5075114;28;20527;-77
2023/05/02 03:44:29;;;;;;;7.93;6.10;;;;;;;13.10;54.43;100169.97;5075021;28;20017;-77
2023/05/02 03:46:55;;;;;;;8.05;5.93;;;;;;;12.71;54.45;100104.69;5074954;28;20028;-78
2023/05/02 03:49:20;;;;;;;7.22;5.72;;;;;;;13.22;54.33;100184.47;5073424;28;20548;-77
2023/05/02 03:51:46;;;;;;;7.80;6.95;;;;;;;12.77;54.15;100111.13;5074543;28;20028;-77
2023/05/02 03:54:11;;;;;;;10.85;7.45;;;;;;;13.34;54.32;100209.56;5074478;28;20481;-79
2023/05/02 03:56:37;;;;;;;19.08;8.18;;;;;;;13.28;54.45;100188.25;5074664;28;20108;-77
2023/05/02 03:59:03;;;;;;;8.23;6.85;;;;;;;13.17;54.30;100173.59;5074553;28;20432;-78
2023/05/02 04:01:28;;;;;;;39.35;8.70;;;;;;;13.05;54.12;100170.50;5074506;28;20025;-77
2023/05/02 04:03:54;;;;;;;26.50;10.60;;;;;;;12.81;53.92;100135.44;5074674;28;20024;-79
2023/05/02 04:06:19;;;;;;;8.77;7.05;;;;;;;13.04;53.95;100186.59;5074407;28;20044;-77
2023/05/02 04:08:44;;;;;;;18.05;7.82;;;;;;;13.15;53.70;100212.69;5074603;28;20024;-78
2023/05/02 04:11:10;;;;;;;50.90;10.68;;;;;;;12.60;53.69;100144.00;5072877;28;20444;-77
2023/05/02 04:13:35;;;;;;;19.25;8.10;;;;;;;13.10;53.66;100222.19;5073995;28;20099;-77
2023/05/02 04:16:00;;;;;;;10.85;6.97;;;;;;;13.07;53.93;100223.34;5074191;28;20032;-78
2023/05/02 04:18:26;;;;;;;7.78;6.57;;;;;;;12.49;53.92;100133.81;5074254;28;20017;-77
2023/05/02 04:20:51;;;;;;;13.07;6.25;;;;;;;12.57;53.87;100155.78;5074324;28;20025;-78
2023/05/02 04:23:17;;;;;;;9.02;6.45;;;;;;;12.44;53.62;100139.63;5074259;28;20031;-77
2023/05/02 04:25:53;;;;;;;22.33;8.05;;;;;;;12.75;53.77;100183.84;5073794;28;20094;-79
2023/05/02 04:28:20;;;;;;;7.85;6.72;;;;;;;12.82;53.86;100204.16;5074016;28;20456;-77
2023/05/02 04:30:49;;;;;;;7.80;6.65;;;;;;;12.52;53.75;100146.72;5074094;28;20103;-77
2023/05/02 04:33:17;;;;;;;12.40;7.80;;;;;;;12.65;54.01;100163.69;5074033;28;20074;-79
2023/05/02 04:35:43;;;;;;;10.07;8.55;;;;;;;13.15;53.58;100220.63;5073895;28;20027;-78
2023/05/02 04:38:08;;;;;;;51.35;14.55;;;;;;;12.86;53.72;100167.53;5073802;28;20024;-78
2023/05/02 04:40:34;;;;;;;10.70;9.23;;;;;;;13.10;53.95;100204.44;5073963;28;20017;-78
2023/05/02 04:43:00;;;;;;;12.15;9.93;;;;;;;13.20;53.73;100209.53;5072376;28;20516;-77
2023/05/02 04:45:25;;;;;;;11.55;9.52;;;;;;;12.99;54.02;100173.88;5072607;28;20024;-78
2023/05/02 04:47:51;;;;;;;14.82;9.35;;;;;;;12.93;53.92;100148.09;5073819;28;20052;-78
2023/05/02 04:50:16;;;;;;;17.02;10.65;;;;;;;13.38;53.72;100206.56;5073499;28;20523;-77
2023/05/02 04:52:42;;;;;;;11.18;9.50;;;;;;;13.55;53.97;100237.25;5073645;28;20017;-78
2023/05/02 04:55:07;;;;;;;13.02;9.55;;;;;;;13.21;53.59;100160.78;5073483;28;20026;-78
2023/05/02 04:57:33;;;;;;;13.50;9.60;;;;;;;13.47;53.89;100189.59;5073500;28;20512;-79
2023/05/02 04:59:58;;;;;;;12.25;9.57;;;;;;;13.29;53.46;100166.84;5073465;28;20028;-77
2023/05/02 05:02:25;;;;;;;8.98;8.07;;;;;;;13.40;53.36;100172.75;5073690;28;20412;-79
2023/05/02 05:04:50;;;;;;;27.60;10.07;;;;;;;13.87;53.02;100228.13;5073450;28;20028;-78
2023/05/02 05:07:16;;;;;;;12.27;9.38;;;;;;;13.65;52.83;100192.72;5072206;28;20090;-77
2023/05/02 05:09:41;;;;;;;11.23;9.30;;;;;;;13.65;52.88;100169.66;5071898;28;20024;-78
2023/05/02 05:12:07;;;;;;;14.57;9.05;;;;;;;14.10;52.67;100228.03;5071716;28;20025;-78
2023/05/02 05:14:33;;;;;;;11.27;9.20;;;;;;;14.16;52.19;100228.16;5073026;28;20028;-78
2023/05/02 05:16:58;;;;;;;14.75;9.32;;;;;;;13.96;51.97;100190.69;5073340;28;20044;-77
2023/05/02 05:19:24;;;;;;;14.65;8.32;;;;;;;14.30;51.64;100229.16;5073072;28;20501;-78
2023/05/02 05:21:49;;;;;;;13.77;7.47;;;;;;;14.38;50.59;100236.19;5072981;28;20090;-77
2023/05/02 05:24:15;;;;;;;9.70;7.53;;;;;;;14.09;50.42;100173.28;5071823;28;20063;-79
2023/05/02 05:26:40;;;;;;;14.52;6.53;;;;;;;14.32;50.29;100203.22;5072551;28;20040;-77
2023/05/02 05:29:07;;;;;;;10.85;6.30;;;;;;;14.11;49.76;100150.03;5072747;28;20104;-78
2023/05/02 05:31:32;;;;;;;10.63;5.30;;;;;;;14.40;49.32;100183.69;5072721;28;20510;-79
2023/05/02 05:33:57;;;;;;;16.27;5.40;;;;;;;14.60;48.80;100217.50;5072772;28;20100;-78
2023/05/02 05:36:23;;;;;;;32.50;8.55;;;;;;;14.53;48.31;100219.25;5072833;28;20056;-77
2023/05/02 05:38:49;;;;;;;8.15;4.80;;;;;;;14.21;47.56;100138.13;5072700;28;20024;-77
2023/05/02 05:41:15;;;;;;;8.60;5.07;;;;;;;14.30;47.47;100144.97;5072736;28;20501;-78
2023/05/02 05:43:40;;;;;;;8.82;4.40;;;;;;;14.92;47.08;100234.81;5072703;28;20032;-77
2023/05/02 05:46:06;;;;;;;11.25;4.57;;;;;;;14.96;46.83;100231.78;5072483;28;20044;-78
2023/05/02 05:48:31;;;;;;;11.48;7.43;;;;;;;14.50;46.69;100152.38;5071071;28;20051;-78
2023/05/02 05:50:56;;;;;;;11.48;6.95;;;;;;;15.09;46.78;100242.56;5073011;28;20099;-77
2023/05/02 05:53:22;;;;;;;14.23;6.25;;;;;;;14.77;46.70;100177.38;5070682;28;20466;-78
2023/05/02 05:55:47;;;;;;;14.82;5.13;;;;;;;14.87;46.12;100197.34;5071893;28;20028;-78
2023/05/02 05:58:12;;;;;;;14.07;5.50;;;;;;;15.15;45.21;100220.50;5072483;28;20081;-78
2023/05/02 06:00:38;;;;;;;9.93;5.22;;;;;;;15.21;44.39;100259.66;5071112;28;20020;-77
2023/05/02 06:03:05;;;;;;;8.68;5.38;;;;;;;15.23;44.58;100252.31;5072587;28;20024;-78
2023/05/02 06:05:31;;;;;;;38.00;8.55;;;;;;;14.77;44.59;100172.06;5071255;28;20024;-77
2023/05/02 06:07:57;;;;;;;23.88;7.63;;;;;;;15.33;44.67;100254.63;5065889;28;20035;-77
2023/05/02 06:10:23;;;;;;;11.55;5.30;;;;;;;14.94;44.37;100182.28;5071223;28;20024;-78
2023/05/02 06:12:48;;;;;;;13.90;6.40;;;;;;;15.48;44.01;100248.22;5059701;28;20494;-77
2023/05/02 06:15:14;;;;;;;9.48;5.57;;;;;;;15.17;43.93;100191.88;5050864;28;20057;-78
2023/05/02 06:17:39;;;;;;;12.30;5.18;;;;;;;15.24;43.23;100193.59;5052557;28;20068;-77
2023/05/02 06:20:06;;;;;;;14.48;5.53;;;;;;;15.74;42.75;100255.66;5071141;28;20611;-77
2023/05/02 06:22:31;;;;;;;11.02;5.45;;;;;;;15.38;41.71;100202.50;5070235;28;20036;-77
2023/05/02 06:24:56;;;;;;;20.88;6.35;;;;;;;15.85;41.14;100248.97;5070544;28;20028;-77
2023/05/02 06:27:22;;;;;;;14.00;6.00;;;;;;;15.33;41.12;100167.66;5070888;28;20123;-78
2023/05/02 06:29:50;;;;;;;42.88;8.85;;;;;;;15.89;41.26;100244.88;5070893;28;20536;-77
2023/05/02 06:32:15;;;;;;;9.48;4.40;;;;;;;15.95;40.73;100235.28;5071680;28;20024;-77
2023/05/02 06:34:41;;;;;;;19.92;6.32;;;;;;;16.15;40.75;100254.88;5071797;28;20099;-77
2023/05/02 06:37:06;;;;;;;10.15;3.97;;;;;;;16.15;40.18;100244.22;5070287;28;20039;-77
2023/05/02 06:39:32;;;;;;;6.43;3.78;;;;;;;16.31;40.09;100248.38;5070288;28;20020;-79
2023/05/02 06:41:58;;;;;;;19.60;6.95;;;;;;;16.37;39.97;100252.97;5071380;28;20027;-76
2023/05/02 06:44:23;;;;;;;4.07;3.22;;;;;;;16.02;39.75;100199.69;5071488;28;20393;-77
2023/05/02 06:46:49;;;;;;;9.52;7.18;;;;;;;16.26;39.95;100226.84;5070430;28;20024;-77
2023/05/02 06:49:15;;;;;;;6.30;3.80;;;;;;;16.30;39.91;100218.25;5071159;28;20020;-78
2023/05/02 06:51:40;;;;;;;6.82;4.82;;;;;;;15.68;40.29;100123.31;5070424;28;20036;-77
2023/05/02 06:54:05;;;;;;;5.80;4.13;;;;;;;16.50;39.91;100221.84;5071441;28;20501;-77
2023/05/02 06:56:31;;;;;;;8.63;4.97;;;;;;;16.79;40.00;100238.56;5070925;28;20107;-77
2023/05/02 06:58:56;;;;;;;8.98;3.53;;;;;;;16.96;39.82;100274.53;5054629;28;20016;-76
2023/05/02 07:01:22;;;;;;;4.38;3.92;;;;;;;17.04;39.43;100258.31;5070962;28;20405;-76
2023/05/02 07:03:47;;;;;;;4.40;3.15;;;;;;;17.13;39.13;100261.66;5071536;28;20409;-77
2023/05/02 07:06:13;;;;;;;5.40;3.42;;;;;;;17.13;38.99;100237.63;5069786;28;20390;-76
2023/05/02 07:08:38;;;;;;;61.30;9.43;;;;;;;16.70;39.21;100157.13;5068868;28;20033;-75
2023/05/02 07:11:03;;;;;;;88.97;15.48;;;;;;;16.92;38.59;100179.91;5069609;28;20029;-76
2023/05/02 07:13:29;;;;;;;6.38;3.30;;;;;;;17.05;38.14;100187.13;5070129;28;20039;-78
2023/05/02 07:15:55;;;;;;;2.55;2.22;;;;;;;17.54;37.50;100258.81;5070618;28;20028;-77
2023/05/02 07:18:20;;;;;;;5.03;2.95;;;;;;;17.61;37.19;100259.63;5070275;28;20032;-75
2023/05/02 07:20:49;;;;;;;12.35;2.85;;;;;;;17.25;37.61;100192.47;5070083;28;20020;-78
2023/05/02 07:23:14;;;;;;;3.35;2.58;;;;;;;17.82;37.54;100255.13;5070749;28;20029;-78
2023/05/02 07:25:40;;;;;;;20.33;5.03;;;;;;;17.55;36.67;100200.88;5069323;28;20038;-77
2023/05/02 07:28:05;;;;;;;10.82;3.33;;;;;;;17.95;36.43;100257.78;5070953;28;20033;-76
2023/05/02 07:30:31;;;;;;;6.32;3.22;;;;;;;17.98;36.22;100260.88;5070952;28;20028;-76
2023/05/02 07:32:57;;;;;;;40.80;5.32;;;;;;;18.03;35.66;100261.06;5070967;28;20024;-77
2023/05/02 07:35:22;;;;;;;6.18;2.30;;;;;;;17.90;35.95;100250.41;5069918;28;20016;-77
2023/05/02 07:37:48;;;;;;;23.05;4.05;;;;;;;17.69;35.94;100195.34;5069173;28;20032;-77
2023/05/02 07:40:13;;;;;;;44.22;10.45;;;;;;;18.16;35.83;100267.41;5069178;28;20033;-76
2023/05/02 07:42:40;;;;;;;5.90;2.83;;;;;;;18.19;35.83;100257.13;5068753;28;20024;-76
2023/05/02 07:45:07;;;;;;;3.92;3.30;;;;;;;18.31;36.15;100254.59;5070432;28;20020;-76
2023/05/02 07:47:32;;;;;;;12.93;4.93;;;;;;;18.46;35.46;100257.03;5069870;28;20025;-77
2023/05/02 07:49:57;;;;;;;5.10;2.78;;;;;;;18.30;35.53;100231.56;5070207;28;20489;-77
2023/05/02 07:52:23;;;;;;;4.45;2.75;;;;;;;17.89;35.50;100151.75;5076275;28;20064;-75
2023/05/02 07:54:49;;;;;;;5.03;2.65;;;;;;;18.60;35.38;100256.78;5079037;28;20020;-77
2023/05/02 07:57:14;;;;;;;5.60;2.22;;;;;;;18.68;35.46;100251.22;5072518;28;20021;-75
2023/05/02 07:59:40;;;;;;;3.47;2.53;;;;;;;18.76;35.82;100247.47;5068965;28;20035;-77
2023/05/02 08:02:06;;;;;;;17.92;4.25;;;;;;;18.89;35.57;100247.41;5070667;28;20016;-76
2023/05/02 08:04:31;;;;;;;6.68;2.83;;;;;;;18.48;35.22;100169.38;5070413;28;20027;-77
2023/05/02 08:06:57;;;;;;;20.42;3.05;;;;;;;19.10;34.51;100250.75;5070701;28;20027;-77
2023/05/02 08:09:22;;;;;;;6.95;3.80;;;;;;;18.47;34.23;100147.19;5070480;28;20028;-76
2023/05/02 08:11:48;;;;;;;21.20;4.78;;;;;;;18.58;34.20;100161.72;5070435;28;20027;-75
2023/05/02 08:14:15;;;;;;;5.05;2.20;;;;;;;19.17;34.33;100248.88;5068859;28;20122;-77
2023/05/02 08:16:41;;;;;;;6.00;2.53;;;;;;;18.96;34.57;100202.69;5070471;28;20035;-76
2023/05/02 08:19:06;;;;;;;6.72;2.25;;;;;;;19.31;34.42;100250.41;5074274;28;20362;-78
2023/05/02 08:21:32;;;;;;;10.18;3.83;;;;;;;19.07;34.26;100185.09;5084991;28;20016;-76
2023/05/02 08:23:58;;;;;;;10.93;4.60;;;;;;;19.26;34.26;100185.97;5083344;28;20029;-77
2023/05/02 08:26:23;;;;;;;22.48;5.97;;;;;;;19.30;33.96;100188.00;5072372;28;20061;-77
2023/05/02 08:28:52;;;;;;;5.45;3.60;;;;;;;19.67;34.20;100215.75;5073704;28;20413;-77
2023/05/02 08:31:18;;;;;;;3.55;2.30;;;;;;;19.90;33.56;100238.41;5074035;28;20531;-77
2023/05/02 08:33:44;;;;;;;5.97;3.20;;;;;;;19.96;33.16;100232.16;5073930;28;20055;-76
2023/05/02 08:36:11;;;;;;;48.42;10.55;;;;;;;19.86;32.31;100205.03;5073697;28;20024;-77
2023/05/02 08:38:36;;;;;;;15.20;4.55;;;;;;;20.11;31.50;100219.22;5072164;28;20032;-77
2023/05/02 08:41:01;;;;;;;28.27;6.40;;;;;;;20.00;31.57;100179.72;5072045;28;20484;-77
2023/05/02 08:43:29;;;;;;;22.20;7.35;;;;;;;20.31;31.94;100214.44;5073711;28;20042;-76
2023/05/02 08:46:00;;;;;;;7.72;4.03;;;;;;;20.61;31.56;100219.88;5073596;28;20118;-76
2023/05/02 08:48:27;;;;;;;20.80;7.30;;;;;;;20.50;30.93;100160.78;5073687;28;20043;-76
2023/05/02 08:50:53;;;;;;;18.17;5.75;;;;;;;21.06;30.64;100222.13;5065005;28;20036;-76
2023/05/02 08:53:19;;;;;;;27.83;7.38;;;;;;;21.28;29.37;100219.75;5070484;28;20663;-76
2023/05/02 08:55:46;;;;;;;14.18;4.40;;;;;;;20.94;28.60;100152.31;5073651;28;20557;-77
2023/05/02 08:58:12;;;;;;;45.97;10.20;;;;;;;21.29;28.04;100197.22;5072752;28;20060;-77
2023/05/02 09:00:39;;;;;;;21.50;7.78;;;;;;;21.52;27.91;100218.72;5073130;28;20044;-77
2023/05/02 09:03:20;;;;;;;26.98;7.15;;;;;;;21.28;28.24;100135.66;5073186;28;20024;-77
2023/05/02 09:05:52;;;;;;;6.23;4.50;;;;;;;21.67;28.05;100166.41;5071786;28;20501;-77
2023/05/02 09:08:24;;;;;;;22.90;11.68;;;;;;;22.17;27.50;100196.25;5070870;28;20445;-77
2023/05/02 09:10:52;;;;;;;;;;;;;;;22.22;27.15;100200.94;5072433;28;20028;-76
2023/05/02 09:13:37;;;;;;;11.18;2.83;;;;;;;22.57;26.45;100196.28;5071141;28;19966;-77
2023/05/02 09:16:10;;;;;;;21.45;5.40;;;;;;;22.72;26.84;100199.25;5069523;28;20058;-78
2023/05/02 09:18:42;;;;;;;44.15;6.70;;;;;;;22.86;26.86;100193.59;5072273;28;20028;-76
2023/05/02 09:21:11;;;;;;;;;;;;;;;22.86;26.54;100196.28;5072216;28;20035;-75
2023/05/02 09:23:36;;;;;;;2.90;2.10;;;;;;;23.05;26.44;100186.94;5072679;28;19908;-75
2023/05/02 09:26:13;;;;;;;4.47;2.92;;;;;;;23.02;26.03;100145.13;5071945;28;20045;-76
2023/05/02 09:28:40;;;;;;;22.27;4.25;;;;;;;23.43;25.80;100172.72;5071443;28;20515;-75
2023/05/02 09:31:08;;;;;;;16.20;3.17;;;;;;;23.51;25.05;100169.59;5071815;28;20063;-75
2023/05/02 09:33:34;;;;;;;3.75;2.17;;;;;;;23.43;24.97;100151.97;5070504;28;20383;-77
2023/05/02 09:35:59;;;;;;;2.55;1.48;;;;;;;23.31;24.74;100099.25;5071979;28;20040;-75
2023/05/02 09:38:25;;;;;;;2.42;1.60;;;;;;;23.90;24.25;100166.97;5065138;28;20058;-76
2023/05/02 09:40:56;;;;;;;10.90;2.47;;;;;;;23.94;24.45;100150.03;5069960;28;20020;-77
2023/05/02 09:43:22;;;;;;;3.30;1.77;;;;;;;24.16;24.41;100147.31;5058884;28;20027;-77
2023/05/02 09:46:01;;;;;;;7.25;2.30;;;;;;;24.20;24.49;100117.94;5071840;28;20020;-76
2023/05/02 09:48:28;;;;;;;5.15;2.60;;;;;;;24.21;24.46;100093.41;5071495;28;20031;-77
2023/05/02 09:50:55;;;;;;;2.00;1.60;;;;;;;24.78;24.31;100159.63;5070688;28;20021;-75
2023/05/02 09:53:20;;;;;;;11.48;2.78;;;;;;;24.90;23.75;100154.84;5071007;28;20032;-77
2023/05/02 09:55:46;;;;;;;2.42;1.60;;;;;;;24.59;23.92;100078.97;5088218;28;20024;-75
2023/05/02 09:58:22;;;;;;;64.15;10.57;;;;;;;24.45;23.23;100044.53;5103655;28;20099;-75
2023/05/02 10:00:50;;;;;;;5.35;1.80;;;;;;;24.60;23.54;100074.41;5090773;28;20103;-76
2023/05/02 10:03:16;;;;;;;21.52;3.10;;;;;;;25.19;23.52;100133.75;5091897;28;20309;-76
2023/05/02 10:05:44;;;;;;;6.70;2.60;;;;;;;24.91;23.14;100083.56;5091342;28;20594;-76
2023/05/02 10:08:10;;;;;;;3.20;1.63;;;;;;;24.91;22.91;100102.47;5091740;28;20454;-76
2023/05/02 10:10:43;;;;;;;3.03;2.20;;;;;;;25.39;23.05;100141.22;5091617;28;20396;-77
2023/05/02 10:13:11;;;;;;;2.95;2.25;;;;;;;25.28;22.69;100103.31;5091776;28;20110;-77
2023/05/02 10:15:43;;;;;;;15.68;4.57;;;;;;;25.37;22.35;100062.28;5091935;28;20031;-78
2023/05/02 10:18:17;;;;;;;3.78;2.20;;;;;;;26.02;22.12;100144.84;5091621;28;20020;-77
2023/05/02 10:20:53;;;;;;;3.13;1.90;;;;;;;25.90;22.33;100099.84;5091634;28;20020;-77
2023/05/02 10:23:20;;;;;;;3.78;2.13;;;;;;;26.28;21.96;100114.06;5090970;28;20020;-77
2023/05/02 10:25:45;;;;;;;4.15;2.70;;;;;;;26.08;21.87;100071.53;5091656;28;20020;-76
2023/05/02 10:28:12;;;;;;;11.32;4.68;;;;;;;26.20;21.60;100114.59;5092082;28;20030;-76
2023/05/02 10:30:39;;;;;;;5.88;2.55;;;;;;;26.38;21.65;100113.31;5091798;28;20119;-77
2023/05/02 10:33:05;;;;;;;7.80;3.53;;;;;;;26.64;21.60;100123.09;5090848;28;20412;-77
2023/05/02 10:35:31;;;;;;;7.65;2.08;;;;;;;26.60;21.44;100120.09;5086196;28;20036;-77
2023/05/02 10:37:58;;;;;;;5.53;2.45;;;;;;;26.47;20.96;100079.19;5091278;28;20050;-77
2023/05/02 10:40:24;;;;;;;10.98;2.03;;;;;;;26.67;20.91;100125.25;5091461;28;20428;-79
2023/05/02 10:42:51;;;;;;;3.35;2.13;;;;;;;26.60;20.87;100108.44;5091526;28;20419;-77
2023/05/02 10:45:31;;;;;;;22.45;6.32;;;;;;;26.93;20.74;100126.09;5091537;28;20028;-76
2023/05/02 10:48:19;;;;;;;23.65;2.78;;;;;;;26.87;20.65;100122.56;5088395;28;20048;-76
2023/05/02 10:50:47;;;;;;;8.68;2.63;;;;;;;26.73;20.65;100066.47;5091039;28;20028;-75
2023/05/02 10:53:35;;;;;;;21.83;2.85;;;;;;;26.59;20.15;100079.75;5091143;28;20027;-78
2023/05/02 10:56:20;;;;;;;3.33;1.52;;;;;;;26.72;20.30;100119.03;5091387;28;20484;-76
2023/05/02 10:58:47;;;;;;;2.45;1.48;;;;;;;26.73;20.38;100080.00;5089854;28;20024;-78
2023/05/02 11:01:28;;;;;;;30.42;5.20;;;;;;;27.20;20.38;100110.38;5091465;28;20153;-76
2023/05/02 11:03:58;;;;;;;3.72;1.75;;;;;;;27.27;20.50;100109.28;5091044;28;20462;-75
2023/05/02 11:06:29;;;;;;;22.15;4.47;;;;;;;27.52;20.41;100130.94;5090119;28;20036;-76
2023/05/02 11:09:31;;;;;;;3.35;1.48;;;;;;;27.74;19.77;100115.16;5085375;28;20431;-75
2023/05/02 11:11:57;;;;;;;5.85;1.95;;;;;;;27.51;19.90;100048.75;5084605;28;20466;-76
2023/05/02 11:14:26;;;;;;;28.58;5.30;;;;;;;27.76;19.81;100121.13;5076698;28;20032;-76
2023/05/02 11:16:58;;;;;;;15.77;3.75;;;;;;;27.89;19.91;100122.44;5075350;28;20016;-76
2023/05/02 11:19:24;;;;;;;4.07;1.55;;;;;;;27.48;19.63;100048.47;5084215;28;20107;-74
2023/05/02 11:21:52;;;;;;;10.52;3.08;;;;;;;28.03;19.29;100114.50;5095164;28;20024;-76
2023/05/02 11:24:40;;;;;;;56.10;9.55;;;;;;;27.98;19.70;100111.81;5071455;28;20093;-77
2023/05/02 11:27:30;;;;;;;18.20;3.17;;;;;;;27.90;19.74;100118.63;5070785;28;20158;-75